sensor_id;sensor_type;location;lat;lon;timestamp;P1;durP1;ratioP1;P2;durP2;ratioP2
15982;SDS011;14442;50.196;8.096;2023-05-01T00:02:00;0.20;;;0.20;;
15982;SDS011;14442;50.196;8.096;2023-05-01T00:04:28;0.10;;;0.10;;
15982;SDS011;14442;50.196;8.096;2023-05-01T00:06:56;0.20;;;0.20;;
15982;SDS011;14442;50.196;8.096;2023-05-01T00:09:25;0.13;;;0.13;;
15982;SDS011;14442;50.196;8.096;2023-05-01T00:11:52;0.10;;;0.10;;
15982;SDS011;14442;50.196;8.096;2023-05-01T00:14:19;0.20;;;0.20;;
15982;SDS011;14442;50.196;8.096;2023-05-01T00:16:45;0.10;;;0.10;;
15982;SDS011;14442;50.196;8.096;2023-05-01T00:19:12;0.20;;;0.20;;
15982;SDS011;14442;50.196;8.096;2023-05-01T00:21:43;0.20;;;0.20;;
15982;SDS011;14442;50.196;8.096;2023-05-01T00:24:11;0.20;;;0.20;;
15982;SDS011;14442;50.196;8.096;2023-05-01T00:26:38;0.27;;;0.20;;
15982;SDS011;14442;50.196;8.096;2023-05-01T00:29:05;0.60;;;0.20;;
15982;SDS011;14442;50.196;8.096;2023-05-01T00:31:31;0.10;;;0.10;;
15982;SDS011;14442;50.196;8.096;2023-05-01T00:33:58;0.13;;;0.13;;
15982;SDS011;14442;50.196;8.096;2023-05-01T00:36:25;0.20;;;0.20;;
15982;SDS011;14442;50.196;8.096;2023-05-01T00:38:53;0.20;;;0.20;;
15982;SDS011;14442;50.196;8.096;2023-05-01T00:41:19;0.30;;;0.30;;
15982;SDS011;14442;50.196;8.096;2023-05-01T00:43:46;0.20;;;0.20;;
15982;SDS011;14442;50.196;8.096;2023-05-01T00:46:13;0.20;;;0.20;;
15982;SDS011;14442;50.196;8.096;2023-05-01T00:48:39;0.30;;;0.30;;
15982;SDS011;14442;50.196;8.096;2023-05-01T00:51:06;0.20;;;0.20;;
15982;SDS011;14442;50.196;8.096;2023-05-01T00:53:33;1.00;;;0.20;;
15982;SDS011;14442;50.196;8.096;2023-05-01T00:56:01;0.17;;;0.17;;
15982;SDS011;14442;50.196;8.096;2023-05-01T00:58:29;0.10;;;0.10;;
15982;SDS011;14442;50.196;8.096;2023-05-01T01:00:55;0.23;;;0.20;;
15982;SDS011;14442;50.196;8.096;2023-05-01T01:03:23;0.10;;;0.10;;
15982;SDS011;14442;50.196;8.096;2023-05-01T01:05:50;0.20;;;0.20;;
15982;SDS011;14442;50.196;8.096;2023-05-01T01:08:21;0.20;;;0.20;;
15982;SDS011;14442;50.196;8.096;2023-05-01T01:10:54;0.20;;;0.20;;
15982;SDS011;14442;50.196;8.096;2023-05-01T01:13:29;0.40;;;0.30;;
15982;SDS011;14442;50.196;8.096;2023-05-01T01:16:03;0.20;;;0.20;;
15982;SDS011;14442;50.196;8.096;2023-05-01T01:18:39;0.20;;;0.20;;
15982;SDS011;14442;50.196;8.096;2023-05-01T01:21:11;1.07;;;0.10;;
15982;SDS011;14442;50.196;8.096;2023-05-01T01:26:52;0.63;;;0.33;;
15982;SDS011;14442;50.196;8.096;2023-05-01T01:29:38;0.30;;;0.30;;
15982;SDS011;14442;50.196;8.096;2023-05-01T01:32:19;1.23;;;0.20;;
15982;SDS011;14442;50.196;8.096;2023-05-01T01:35:11;0.23;;;0.20;;
15982;SDS011;14442;50.196;8.096;2023-05-01T01:37:46;0.20;;;0.20;;
15982;SDS011;14442;50.196;8.096;2023-05-01T01:40:16;0.17;;;0.17;;
15982;SDS011;14442;50.196;8.096;2023-05-01T01:42:49;0.20;;;0.20;;
15982;SDS011;14442;50.196;8.096;2023-05-01T01:45:20;0.20;;;0.20;;
15982;SDS011;14442;50.196;8.096;2023-05-01T01:47:48;0.20;;;0.20;;
15982;SDS011;14442;50.196;8.096;2023-05-01T01:50:19;0.10;;;0.10;;
15982;SDS011;14442;50.196;8.096;2023-05-01T01:52:50;0.10;;;0.10;;
15982;SDS011;14442;50.196;8.096;2023-05-01T01:55:20;0.10;;;0.10;;
15982;SDS011;14442;50.196;8.096;2023-05-01T01:57:51;0.17;;;0.17;;
15982;SDS011;14442;50.196;8.096;2023-05-01T02:00:18;0.10;;;0.10;;
15982;SDS011;14442;50.196;8.096;2023-05-01T02:02:46;0.10;;;0.10;;
15982;SDS011;14442;50.196;8.096;2023-05-01T02:05:15;0.20;;;0.20;;
15982;SDS011;14442;50.196;8.096;2023-05-01T02:07:46;1.03;;;0.20;;
15982;SDS011;14442;50.196;8.096;2023-05-01T02:10:14;0.80;;;0.20;;
15982;SDS011;14442;50.196;8.096;2023-05-01T02:12:43;0.10;;;0.10;;
15982;SDS011;14442;50.196;8.096;2023-05-01T02:15:14;0.23;;;0.23;;
15982;SDS011;14442;50.196;8.096;2023-05-01T02:17:43;0.23;;;0.23;;
15982;SDS011;14442;50.196;8.096;2023-05-01T02:20:10;0.20;;;0.20;;
15982;SDS011;14442;50.196;8.096;2023-05-01T02:22:37;0.20;;;0.20;;
15982;SDS011;14442;50.196;8.096;2023-05-01T02:25:07;0.70;;;0.10;;
15982;SDS011;14442;50.196;8.096;2023-05-01T02:27:37;0.20;;;0.20;;
15982;SDS011;14442;50.196;8.096;2023-05-01T02:30:06;0.20;;;0.20;;
15982;SDS011;14442;50.196;8.096;2023-05-01T02:32:33;0.20;;;0.20;;
15982;SDS011;14442;50.196;8.096;2023-05-01T02:35:00;0.10;;;0.10;;
15982;SDS011;14442;50.196;8.096;2023-05-01T02:37:27;0.10;;;0.10;;
15982;SDS011;14442;50.196;8.096;2023-05-01T02:39:55;0.20;;;0.20;;
15982;SDS011;14442;50.196;8.096;2023-05-01T02:42:23;0.10;;;0.10;;
15982;SDS011;14442;50.196;8.096;2023-05-01T02:44:52;0.10;;;0.10;;
15982;SDS011;14442;50.196;8.096;2023-05-01T02:47:21;0.17;;;0.10;;
15982;SDS011;14442;50.196;8.096;2023-05-01T02:49:49;0.10;;;0.10;;
15982;SDS011;14442;50.196;8.096;2023-05-01T02:52:18;0.30;;;0.30;;
15982;SDS011;14442;50.196;8.096;2023-05-01T02:54:47;0.30;;;0.17;;
15982;SDS011;14442;50.196;8.096;2023-05-01T02:57:15;0.20;;;0.20;;
15982;SDS011;14442;50.196;8.096;2023-05-01T02:59:43;1.03;;;0.20;;
15982;SDS011;14442;50.196;8.096;2023-05-01T03:02:10;0.30;;;0.30;;
15982;SDS011;14442;50.196;8.096;2023-05-01T03:04:37;0.73;;;0.10;;
15982;SDS011;14442;50.196;8.096;2023-05-01T03:07:03;0.10;;;0.10;;
15982;SDS011;14442;50.196;8.096;2023-05-01T03:09:30;0.10;;;0.10;;
15982;SDS011;14442;50.196;8.096;2023-05-01T03:11:57;0.20;;;0.20;;
15982;SDS011;14442;50.196;8.096;2023-05-01T03:14:24;0.20;;;0.20;;
15982;SDS011;14442;50.196;8.096;2023-05-01T03:16:53;0.10;;;0.10;;
15982;SDS011;14442;50.196;8.096;2023-05-01T03:19:20;0.30;;;0.30;;
15982;SDS011;14442;50.196;8.096;2023-05-01T03:21:47;0.10;;;0.10;;
15982;SDS011;14442;50.196;8.096;2023-05-01T03:24:13;0.40;;;0.40;;
15982;SDS011;14442;50.196;8.096;2023-05-01T03:26:40;0.20;;;0.20;;
15982;SDS011;14442;50.196;8.096;2023-05-01T03:29:07;0.13;;;0.13;;
15982;SDS011;14442;50.196;8.096;2023-05-01T03:31:33;0.20;;;0.20;;
15982;SDS011;14442;50.196;8.096;2023-05-01T03:34:01;0.10;;;0.10;;
15982;SDS011;14442;50.196;8.096;2023-05-01T03:36:28;0.20;;;0.20;;
15982;SDS011;14442;50.196;8.096;2023-05-01T03:38:57;0.20;;;0.20;;
15982;SDS011;14442;50.196;8.096;2023-05-01T03:41:24;0.40;;;0.30;;
15982;SDS011;14442;50.196;8.096;2023-05-01T03:43:51;0.30;;;0.10;;
15982;SDS011;14442;50.196;8.096;2023-05-01T03:46:18;0.20;;;0.20;;
15982;SDS011;14442;50.196;8.096;2023-05-01T03:48:45;0.10;;;0.10;;
15982;SDS011;14442;50.196;8.096;2023-05-01T03:51:13;0.20;;;0.20;;
15982;SDS011;14442;50.196;8.096;2023-05-01T03:53:41;0.20;;;0.20;;
15982;SDS011;14442;50.196;8.096;2023-05-01T03:56:07;0.10;;;0.10;;
15982;SDS011;14442;50.196;8.096;2023-05-01T03:58:34;0.20;;;0.20;;
15982;SDS011;14442;50.196;8.096;2023-05-01T04:01:01;1.83;;;0.37;;
15982;SDS011;14442;50.196;8.096;2023-05-01T04:03:27;0.20;;;0.20;;
15982;SDS011;14442;50.196;8.096;2023-05-01T04:05:54;0.57;;;0.20;;
15982;SDS011;14442;50.196;8.096;2023-05-01T04:08:22;0.10;;;0.10;;
15982;SDS011;14442;50.196;8.096;2023-05-01T04:10:49;0.20;;;0.20;;
15982;SDS011;14442;50.196;8.096;2023-05-01T04:13:16;0.10;;;0.10;;
15982;SDS011;14442;50.196;8.096;2023-05-01T04:15:43;0.20;;;0.20;;
15982;SDS011;14442;50.196;8.096;2023-05-01T04:18:11;0.17;;;0.17;;
15982;SDS011;14442;50.196;8.096;2023-05-01T04:20:38;0.10;;;0.10;;
15982;SDS011;14442;50.196;8.096;2023-05-01T04:23:05;0.20;;;0.20;;
15982;SDS011;14442;50.196;8.096;2023-05-01T04:25:34;0.60;;;0.20;;
15982;SDS011;14442;50.196;8.096;2023-05-01T04:28:01;0.20;;;0.20;;
15982;SDS011;14442;50.196;8.096;2023-05-01T04:30:28;0.67;;;0.20;;
15982;SDS011;14442;50.196;8.096;2023-05-01T04:32:55;0.10;;;0.10;;
15982;SDS011;14442;50.196;8.096;2023-05-01T04:35:22;0.17;;;0.13;;
15982;SDS011;14442;50.196;8.096;2023-05-01T04:37:49;0.10;;;0.10;;
15982;SDS011;14442;50.196;8.096;2023-05-01T04:40:16;0.20;;;0.20;;
15982;SDS011;14442;50.196;8.096;2023-05-01T04:42:44;0.20;;;0.20;;
15982;SDS011;14442;50.196;8.096;2023-05-01T04:45:11;0.20;;;0.20;;
15982;SDS011;14442;50.196;8.096;2023-05-01T04:47:37;0.20;;;0.20;;
15982;SDS011;14442;50.196;8.096;2023-05-01T04:50:04;0.10;;;0.10;;
15982;SDS011;14442;50.196;8.096;2023-05-01T04:52:32;0.10;;;0.10;;
15982;SDS011;14442;50.196;8.096;2023-05-01T04:54:59;0.10;;;0.10;;
15982;SDS011;14442;50.196;8.096;2023-05-01T04:57:26;0.20;;;0.20;;
15982;SDS011;14442;50.196;8.096;2023-05-01T04:59:54;0.17;;;0.17;;
15982;SDS011;14442;50.196;8.096;2023-05-01T05:02:21;0.20;;;0.20;;
15982;SDS011;14442;50.196;8.096;2023-05-01T05:04:47;0.10;;;0.10;;
15982;SDS011;14442;50.196;8.096;2023-05-01T05:07:15;0.20;;;0.20;;
15982;SDS011;14442;50.196;8.096;2023-05-01T05:09:41;0.20;;;0.20;;
15982;SDS011;14442;50.196;8.096;2023-05-01T05:12:08;0.10;;;0.10;;
15982;SDS011;14442;50.196;8.096;2023-05-01T05:14:34;0.10;;;0.10;;
15982;SDS011;14442;50.196;8.096;2023-05-01T05:17:02;0.17;;;0.17;;
15982;SDS011;14442;50.196;8.096;2023-05-01T05:19:30;0.13;;;0.13;;
15982;SDS011;14442;50.196;8.096;2023-05-01T05:21:56;0.10;;;0.10;;
15982;SDS011;14442;50.196;8.096;2023-05-01T05:24:23;0.20;;;0.20;;
15982;SDS011;14442;50.196;8.096;2023-05-01T05:26:50;0.10;;;0.10;;
15982;SDS011;14442;50.196;8.096;2023-05-01T05:29:16;0.30;;;0.30;;
15982;SDS011;14442;50.196;8.096;2023-05-01T05:31:43;0.97;;;0.10;;
15982;SDS011;14442;50.196;8.096;2023-05-01T05:34:12;0.20;;;0.20;;
15982;SDS011;14442;50.196;8.096;2023-05-01T05:36:39;0.20;;;0.20;;
15982;SDS011;14442;50.196;8.096;2023-05-01T05:39:05;1.40;;;0.20;;
15982;SDS011;14442;50.196;8.096;2023-05-01T05:41:32;0.33;;;0.20;;
15982;SDS011;14442;50.196;8.096;2023-05-01T05:43:59;0.20;;;0.20;;
15982;SDS011;14442;50.196;8.096;2023-05-01T05:46:25;1.07;;;0.20;;
15982;SDS011;14442;50.196;8.096;2023-05-01T05:48:52;0.20;;;0.20;;
15982;SDS011;14442;50.196;8.096;2023-05-01T05:51:20;0.20;;;0.20;;
15982;SDS011;14442;50.196;8.096;2023-05-01T05:53:47;0.20;;;0.20;;
15982;SDS011;14442;50.196;8.096;2023-05-01T05:56:13;0.20;;;0.20;;
15982;SDS011;14442;50.196;8.096;2023-05-01T05:58:40;0.67;;;0.23;;
15982;SDS011;14442;50.196;8.096;2023-05-01T06:01:07;0.20;;;0.20;;
15982;SDS011;14442;50.196;8.096;2023-05-01T06:03:35;0.30;;;0.30;;
15982;SDS011;14442;50.196;8.096;2023-05-01T06:06:02;0.30;;;0.30;;
15982;SDS011;14442;50.196;8.096;2023-05-01T06:08:30;0.20;;;0.20;;
15982;SDS011;14442;50.196;8.096;2023-05-01T06:10:59;0.30;;;0.30;;
15982;SDS011;14442;50.196;8.096;2023-05-01T06:13:26;1.07;;;0.20;;
15982;SDS011;14442;50.196;8.096;2023-05-01T06:15:52;0.20;;;0.20;;
15982;SDS011;14442;50.196;8.096;2023-05-01T06:18:19;0.60;;;0.23;;
15982;SDS011;14442;50.196;8.096;2023-05-01T06:20:46;0.20;;;0.20;;
15982;SDS011;14442;50.196;8.096;2023-05-01T06:23:13;0.40;;;0.40;;
15982;SDS011;14442;50.196;8.096;2023-05-01T06:25:41;0.23;;;0.23;;
15982;SDS011;14442;50.196;8.096;2023-05-01T06:28:08;0.73;;;0.20;;
15982;SDS011;14442;50.196;8.096;2023-05-01T06:30:35;0.20;;;0.20;;
15982;SDS011;14442;50.196;8.096;2023-05-01T06:33:01;0.50;;;0.30;;
15982;SDS011;14442;50.196;8.096;2023-05-01T06:35:28;0.30;;;0.20;;
15982;SDS011;14442;50.196;8.096;2023-05-01T06:37:55;0.10;;;0.10;;
15982;SDS011;14442;50.196;8.096;2023-05-01T06:40:22;0.43;;;0.23;;
15982;SDS011;14442;50.196;8.096;2023-05-01T06:42:50;0.20;;;0.20;;
15982;SDS011;14442;50.196;8.096;2023-05-01T06:45:17;0.20;;;0.20;;
15982;SDS011;14442;50.196;8.096;2023-05-01T06:47:43;0.20;;;0.20;;
15982;SDS011;14442;50.196;8.096;2023-05-01T06:50:10;0.30;;;0.30;;
15982;SDS011;14442;50.196;8.096;2023-05-01T06:52:37;0.20;;;0.20;;
15982;SDS011;14442;50.196;8.096;2023-05-01T06:55:03;0.33;;;0.33;;
15982;SDS011;14442;50.196;8.096;2023-05-01T06:57:30;0.23;;;0.23;;
15982;SDS011;14442;50.196;8.096;2023-05-01T06:59:58;0.73;;;0.20;;
15982;SDS011;14442;50.196;8.096;2023-05-01T07:02:25;0.30;;;0.30;;
15982;SDS011;14442;50.196;8.096;2023-05-01T07:04:52;0.20;;;0.20;;
15982;SDS011;14442;50.196;8.096;2023-05-01T07:07:18;0.20;;;0.20;;
15982;SDS011;14442;50.196;8.096;2023-05-01T07:09:45;0.27;;;0.27;;
15982;SDS011;14442;50.196;8.096;2023-05-01T07:12:12;0.50;;;0.20;;
15982;SDS011;14442;50.196;8.096;2023-05-01T07:14:39;0.20;;;0.20;;
15982;SDS011;14442;50.196;8.096;2023-05-01T07:17:07;0.30;;;0.30;;
15982;SDS011;14442;50.196;8.096;2023-05-01T07:19:34;0.30;;;0.30;;
15982;SDS011;14442;50.196;8.096;2023-05-01T07:22:01;0.43;;;0.33;;
15982;SDS011;14442;50.196;8.096;2023-05-01T07:24:28;0.20;;;0.20;;
15982;SDS011;14442;50.196;8.096;2023-05-01T07:26:55;0.30;;;0.30;;
15982;SDS011;14442;50.196;8.096;2023-05-01T07:29:22;0.37;;;0.27;;
15982;SDS011;14442;50.196;8.096;2023-05-01T07:31:48;0.30;;;0.30;;
15982;SDS011;14442;50.196;8.096;2023-05-01T07:34:16;0.30;;;0.23;;
15982;SDS011;14442;50.196;8.096;2023-05-01T07:36:43;0.23;;;0.23;;
15982;SDS011;14442;50.196;8.096;2023-05-01T07:39:10;0.30;;;0.23;;
15982;SDS011;14442;50.196;8.096;2023-05-01T07:41:37;0.33;;;0.30;;
15982;SDS011;14442;50.196;8.096;2023-05-01T07:44:04;0.43;;;0.43;;
15982;SDS011;14442;50.196;8.096;2023-05-01T07:46:31;1.23;;;0.30;;
15982;SDS011;14442;50.196;8.096;2023-05-01T07:48:59;0.30;;;0.30;;
15982;SDS011;14442;50.196;8.096;2023-05-01T07:51:27;1.00;;;0.40;;
15982;SDS011;14442;50.196;8.096;2023-05-01T07:53:53;0.57;;;0.40;;
15982;SDS011;14442;50.196;8.096;2023-05-01T07:56:20;0.23;;;0.23;;
15982;SDS011;14442;50.196;8.096;2023-05-01T07:58:47;0.20;;;0.20;;
15982;SDS011;14442;50.196;8.096;2023-05-01T08:01:14;0.30;;;0.30;;
15982;SDS011;14442;50.196;8.096;2023-05-01T08:03:41;0.30;;;0.30;;
15982;SDS011;14442;50.196;8.096;2023-05-01T08:06:08;0.60;;;0.37;;
15982;SDS011;14442;50.196;8.096;2023-05-01T08:08:36;0.50;;;0.40;;
15982;SDS011;14442;50.196;8.096;2023-05-01T08:11:03;0.40;;;0.40;;
15982;SDS011;14442;50.196;8.096;2023-05-01T08:13:29;0.40;;;0.40;;
15982;SDS011;14442;50.196;8.096;2023-05-01T08:15:59;0.30;;;0.30;;
15982;SDS011;14442;50.196;8.096;2023-05-01T08:18:26;1.13;;;0.30;;
15982;SDS011;14442;50.196;8.096;2023-05-01T08:20:52;0.40;;;0.40;;
15982;SDS011;14442;50.196;8.096;2023-05-01T08:23:19;0.50;;;0.30;;
15982;SDS011;14442;50.196;8.096;2023-05-01T08:25:47;0.30;;;0.30;;
15982;SDS011;14442;50.196;8.096;2023-05-01T08:28:15;0.40;;;0.40;;
15982;SDS011;14442;50.196;8.096;2023-05-01T08:30:44;0.30;;;0.30;;
15982;SDS011;14442;50.196;8.096;2023-05-01T08:33:13;0.47;;;0.47;;
15982;SDS011;14442;50.196;8.096;2023-05-01T08:35:40;0.30;;;0.30;;
15982;SDS011;14442;50.196;8.096;2023-05-01T08:38:06;0.37;;;0.30;;
15982;SDS011;14442;50.196;8.096;2023-05-01T08:40:35;0.30;;;0.30;;
15982;SDS011;14442;50.196;8.096;2023-05-01T08:43:04;0.83;;;0.40;;
15982;SDS011;14442;50.196;8.096;2023-05-01T08:45:31;0.40;;;0.40;;
15982;SDS011;14442;50.196;8.096;2023-05-01T08:48:01;0.47;;;0.47;;
15982;SDS011;14442;50.196;8.096;2023-05-01T08:50:30;0.30;;;0.30;;
15982;SDS011;14442;50.196;8.096;2023-05-01T08:53:00;0.40;;;0.40;;
15982;SDS011;14442;50.196;8.096;2023-05-01T08:55:28;0.53;;;0.40;;
15982;SDS011;14442;50.196;8.096;2023-05-01T08:57:56;0.37;;;0.37;;
15982;SDS011;14442;50.196;8.096;2023-05-01T09:00:25;0.60;;;0.40;;
15982;SDS011;14442;50.196;8.096;2023-05-01T09:02:52;0.27;;;0.27;;
15982;SDS011;14442;50.196;8.096;2023-05-01T09:05:20;0.40;;;0.40;;
15982;SDS011;14442;50.196;8.096;2023-05-01T09:07:46;0.40;;;0.40;;
15982;SDS011;14442;50.196;8.096;2023-05-01T09:10:14;0.30;;;0.30;;
15982;SDS011;14442;50.196;8.096;2023-05-01T09:12:41;0.37;;;0.30;;
15982;SDS011;14442;50.196;8.096;2023-05-01T09:15:12;0.40;;;0.40;;
15982;SDS011;14442;50.196;8.096;2023-05-01T09:17:40;0.47;;;0.47;;
15982;SDS011;14442;50.196;8.096;2023-05-01T09:20:08;0.50;;;0.30;;
15982;SDS011;14442;50.196;8.096;2023-05-01T09:22:36;0.40;;;0.40;;
15982;SDS011;14442;50.196;8.096;2023-05-01T09:25:03;0.33;;;0.33;;
15982;SDS011;14442;50.196;8.096;2023-05-01T09:27:32;0.40;;;0.40;;
15982;SDS011;14442;50.196;8.096;2023-05-01T09:30:00;0.40;;;0.40;;
15982;SDS011;14442;50.196;8.096;2023-05-01T09:32:27;1.30;;;0.40;;
15982;SDS011;14442;50.196;8.096;2023-05-01T09:35:07;0.47;;;0.40;;
15982;SDS011;14442;50.196;8.096;2023-05-01T09:37:35;0.50;;;0.50;;
15982;SDS011;14442;50.196;8.096;2023-05-01T09:40:05;0.50;;;0.50;;
15982;SDS011;14442;50.196;8.096;2023-05-01T09:42:34;0.60;;;0.60;;
15982;SDS011;14442;50.196;8.096;2023-05-01T09:45:02;0.70;;;0.40;;
15982;SDS011;14442;50.196;8.096;2023-05-01T09:47:30;0.93;;;0.50;;
15982;SDS011;14442;50.196;8.096;2023-05-01T09:49:59;1.27;;;0.50;;
15982;SDS011;14442;50.196;8.096;2023-05-01T09:52:26;1.47;;;0.60;;
15982;SDS011;14442;50.196;8.096;2023-05-01T09:55:12;0.53;;;0.53;;
15982;SDS011;14442;50.196;8.096;2023-05-01T09:57:40;0.50;;;0.50;;
15982;SDS011;14442;50.196;8.096;2023-05-01T10:00:08;0.33;;;0.30;;
15982;SDS011;14442;50.196;8.096;2023-05-01T10:02:36;0.40;;;0.40;;
15982;SDS011;14442;50.196;8.096;2023-05-01T10:05:05;0.40;;;0.40;;
15982;SDS011;14442;50.196;8.096;2023-05-01T10:07:32;0.67;;;0.60;;
15982;SDS011;14442;50.196;8.096;2023-05-01T10:10:13;0.50;;;0.50;;
15982;SDS011;14442;50.196;8.096;2023-05-01T10:12:41;0.50;;;0.50;;
15982;SDS011;14442;50.196;8.096;2023-05-01T10:15:08;0.60;;;0.60;;
15982;SDS011;14442;50.196;8.096;2023-05-01T10:17:35;0.50;;;0.50;;
15982;SDS011;14442;50.196;8.096;2023-05-01T10:20:05;0.93;;;0.50;;
15982;SDS011;14442;50.196;8.096;2023-05-01T10:22:33;0.87;;;0.40;;
15982;SDS011;14442;50.196;8.096;2023-05-01T10:25:00;0.53;;;0.53;;
15982;SDS011;14442;50.196;8.096;2023-05-01T10:27:28;0.77;;;0.50;;
15982;SDS011;14442;50.196;8.096;2023-05-01T10:29:55;3.37;;;0.60;;
15982;SDS011;14442;50.196;8.096;2023-05-01T10:32:24;0.97;;;0.53;;
15982;SDS011;14442;50.196;8.096;2023-05-01T10:34:53;0.87;;;0.60;;
15982;SDS011;14442;50.196;8.096;2023-05-01T10:37:25;0.50;;;0.50;;
15982;SDS011;14442;50.196;8.096;2023-05-01T10:39:57;0.60;;;0.53;;
15982;SDS011;14442;50.196;8.096;2023-05-01T10:42:24;1.27;;;0.60;;
15982;SDS011;14442;50.196;8.096;2023-05-01T10:44:52;0.40;;;0.40;;
15982;SDS011;14442;50.196;8.096;2023-05-01T10:50:10;0.60;;;0.60;;
15982;SDS011;14442;50.196;8.096;2023-05-01T10:55:45;0.60;;;0.60;;
15982;SDS011;14442;50.196;8.096;2023-05-01T10:58:13;3.57;;;0.77;;
15982;SDS011;14442;50.196;8.096;2023-05-01T11:03:58;1.07;;;0.80;;
15982;SDS011;14442;50.196;8.096;2023-05-01T11:06:25;1.60;;;0.50;;
15982;SDS011;14442;50.196;8.096;2023-05-01T11:08:53;0.57;;;0.57;;
15982;SDS011;14442;50.196;8.096;2023-05-01T11:14:15;2.00;;;0.60;;
15982;SDS011;14442;50.196;8.096;2023-05-01T11:16:43;1.23;;;0.57;;
15982;SDS011;14442;50.196;8.096;2023-05-01T11:22:15;1.20;;;0.43;;
15982;SDS011;14442;50.196;8.096;2023-05-01T11:24:44;0.83;;;0.70;;
15982;SDS011;14442;50.196;8.096;2023-05-01T11:27:12;2.10;;;0.80;;
15982;SDS011;14442;50.196;8.096;2023-05-01T11:29:39;1.03;;;0.90;;
15982;SDS011;14442;50.196;8.096;2023-05-01T11:32:17;1.13;;;0.70;;
15982;SDS011;14442;50.196;8.096;2023-05-01T11:34:45;1.60;;;0.67;;
15982;SDS011;14442;50.196;8.096;2023-05-01T11:37:13;1.60;;;0.60;;
15982;SDS011;14442;50.196;8.096;2023-05-01T11:39:47;0.60;;;0.60;;
15982;SDS011;14442;50.196;8.096;2023-05-01T11:42:14;0.63;;;0.60;;
15982;SDS011;14442;50.196;8.096;2023-05-01T11:44:41;1.17;;;0.80;;
15982;SDS011;14442;50.196;8.096;2023-05-01T11:47:08;0.70;;;0.60;;
15982;SDS011;14442;50.196;8.096;2023-05-01T11:49:34;1.80;;;0.63;;
15982;SDS011;14442;50.196;8.096;2023-05-01T11:52:01;0.80;;;0.80;;
15982;SDS011;14442;50.196;8.096;2023-05-01T11:54:28;0.63;;;0.60;;
15982;SDS011;14442;50.196;8.096;2023-05-01T11:56:59;0.67;;;0.67;;
15982;SDS011;14442;50.196;8.096;2023-05-01T11:59:26;0.70;;;0.70;;
15982;SDS011;14442;50.196;8.096;2023-05-01T12:01:53;1.20;;;0.67;;
15982;SDS011;14442;50.196;8.096;2023-05-01T12:04:23;0.87;;;0.53;;
15982;SDS011;14442;50.196;8.096;2023-05-01T12:06:51;0.80;;;0.60;;
15982;SDS011;14442;50.196;8.096;2023-05-01T12:09:19;1.50;;;0.80;;
15982;SDS011;14442;50.196;8.096;2023-05-01T12:11:47;1.03;;;0.60;;
15982;SDS011;14442;50.196;8.096;2023-05-01T12:14:17;2.17;;;1.03;;
15982;SDS011;14442;50.196;8.096;2023-05-01T12:16:44;0.60;;;0.50;;
15982;SDS011;14442;50.196;8.096;2023-05-01T12:19:12;1.00;;;0.90;;
15982;SDS011;14442;50.196;8.096;2023-05-01T12:21:39;0.73;;;0.70;;
15982;SDS011;14442;50.196;8.096;2023-05-01T12:24:07;0.83;;;0.73;;
15982;SDS011;14442;50.196;8.096;2023-05-01T12:26:34;0.37;;;0.37;;
15982;SDS011;14442;50.196;8.096;2023-05-01T12:29:01;1.70;;;0.80;;
15982;SDS011;14442;50.196;8.096;2023-05-01T12:31:31;0.70;;;0.70;;
15982;SDS011;14442;50.196;8.096;2023-05-01T12:33:59;0.47;;;0.47;;
15982;SDS011;14442;50.196;8.096;2023-05-01T12:36:27;0.63;;;0.60;;
15982;SDS011;14442;50.196;8.096;2023-05-01T12:38:59;0.77;;;0.77;;
15982;SDS011;14442;50.196;8.096;2023-05-01T12:41:35;0.67;;;0.67;;
15982;SDS011;14442;50.196;8.096;2023-05-01T12:44:13;1.50;;;0.50;;
15982;SDS011;14442;50.196;8.096;2023-05-01T12:46:43;1.03;;;0.80;;
15982;SDS011;14442;50.196;8.096;2023-05-01T12:49:15;2.67;;;0.60;;
15982;SDS011;14442;50.196;8.096;2023-05-01T12:51:44;0.97;;;0.73;;
15982;SDS011;14442;50.196;8.096;2023-05-01T12:54:16;0.83;;;0.60;;
15982;SDS011;14442;50.196;8.096;2023-05-01T12:56:44;1.37;;;0.50;;
15982;SDS011;14442;50.196;8.096;2023-05-01T12:59:18;0.60;;;0.60;;
15982;SDS011;14442;50.196;8.096;2023-05-01T13:01:48;1.60;;;0.70;;
15982;SDS011;14442;50.196;8.096;2023-05-01T13:04:22;0.83;;;0.73;;
15982;SDS011;14442;50.196;8.096;2023-05-01T13:06:49;0.43;;;0.43;;
15982;SDS011;14442;50.196;8.096;2023-05-01T13:09:19;0.63;;;0.63;;
15982;SDS011;14442;50.196;8.096;2023-05-01T13:11:54;1.13;;;0.63;;
15982;SDS011;14442;50.196;8.096;2023-05-01T13:14:25;0.97;;;0.70;;
15982;SDS011;14442;50.196;8.096;2023-05-01T13:16:54;1.00;;;0.57;;
15982;SDS011;14442;50.196;8.096;2023-05-01T13:19:24;0.50;;;0.50;;
15982;SDS011;14442;50.196;8.096;2023-05-01T13:21:55;1.47;;;0.70;;
15982;SDS011;14442;50.196;8.096;2023-05-01T13:24:22;0.70;;;0.70;;
15982;SDS011;14442;50.196;8.096;2023-05-01T13:26:55;1.37;;;0.70;;
15982;SDS011;14442;50.196;8.096;2023-05-01T13:29:25;0.53;;;0.53;;
15982;SDS011;14442;50.196;8.096;2023-05-01T13:31:54;0.60;;;0.60;;
15982;SDS011;14442;50.196;8.096;2023-05-01T13:34:23;0.73;;;0.73;;
15982;SDS011;14442;50.196;8.096;2023-05-01T13:36:53;1.70;;;0.50;;
15982;SDS011;14442;50.196;8.096;2023-05-01T13:39:20;0.67;;;0.50;;
15982;SDS011;14442;50.196;8.096;2023-05-01T13:41:47;0.70;;;0.70;;
15982;SDS011;14442;50.196;8.096;2023-05-01T13:44:14;1.63;;;0.90;;
15982;SDS011;14442;50.196;8.096;2023-05-01T13:46:41;0.80;;;0.70;;
15982;SDS011;14442;50.196;8.096;2023-05-01T13:49:09;0.60;;;0.50;;
15982;SDS011;14442;50.196;8.096;2023-05-01T13:51:39;0.83;;;0.80;;
15982;SDS011;14442;50.196;8.096;2023-05-01T13:54:07;1.40;;;0.70;;
15982;SDS011;14442;50.196;8.096;2023-05-01T13:56:35;0.60;;;0.60;;
15982;SDS011;14442;50.196;8.096;2023-05-01T13:59:02;1.97;;;0.70;;
15982;SDS011;14442;50.196;8.096;2023-05-01T14:01:29;0.60;;;0.60;;
15982;SDS011;14442;50.196;8.096;2023-05-01T14:03:56;0.70;;;0.70;;
15982;SDS011;14442;50.196;8.096;2023-05-01T14:06:25;0.67;;;0.67;;
15982;SDS011;14442;50.196;8.096;2023-05-01T14:08:53;1.67;;;0.67;;
15982;SDS011;14442;50.196;8.096;2023-05-01T14:11:24;0.83;;;0.60;;
15982;SDS011;14442;50.196;8.096;2023-05-01T14:13:51;0.80;;;0.70;;
15982;SDS011;14442;50.196;8.096;2023-05-01T14:16:21;0.53;;;0.53;;
15982;SDS011;14442;50.196;8.096;2023-05-01T14:18:50;0.67;;;0.67;;
15982;SDS011;14442;50.196;8.096;2023-05-01T14:21:20;0.63;;;0.63;;
15982;SDS011;14442;50.196;8.096;2023-05-01T14:23:50;0.60;;;0.60;;
15982;SDS011;14442;50.196;8.096;2023-05-01T14:26:18;1.23;;;0.80;;
15982;SDS011;14442;50.196;8.096;2023-05-01T14:28:46;0.87;;;0.47;;
15982;SDS011;14442;50.196;8.096;2023-05-01T14:31:14;0.50;;;0.50;;
15982;SDS011;14442;50.196;8.096;2023-05-01T14:33:42;0.60;;;0.60;;
15982;SDS011;14442;50.196;8.096;2023-05-01T14:36:09;0.80;;;0.73;;
15982;SDS011;14442;50.196;8.096;2023-05-01T14:38:37;1.23;;;0.80;;
15982;SDS011;14442;50.196;8.096;2023-05-01T14:41:08;0.60;;;0.60;;
15982;SDS011;14442;50.196;8.096;2023-05-01T14:43:37;0.50;;;0.50;;
15982;SDS011;14442;50.196;8.096;2023-05-01T14:46:07;0.90;;;0.70;;
15982;SDS011;14442;50.196;8.096;2023-05-01T14:48:33;0.67;;;0.67;;
15982;SDS011;14442;50.196;8.096;2023-05-01T14:51:02;0.70;;;0.70;;
15982;SDS011;14442;50.196;8.096;2023-05-01T14:53:30;0.73;;;0.60;;
15982;SDS011;14442;50.196;8.096;2023-05-01T14:55:57;0.77;;;0.77;;
15982;SDS011;14442;50.196;8.096;2023-05-01T14:58:26;0.70;;;0.70;;
15982;SDS011;14442;50.196;8.096;2023-05-01T15:00:52;0.70;;;0.70;;
15982;SDS011;14442;50.196;8.096;2023-05-01T15:03:19;0.60;;;0.60;;
15982;SDS011;14442;50.196;8.096;2023-05-01T15:05:46;1.10;;;0.70;;
15982;SDS011;14442;50.196;8.096;2023-05-01T15:08:12;0.77;;;0.50;;
15982;SDS011;14442;50.196;8.096;2023-05-01T15:10:39;0.50;;;0.50;;
15982;SDS011;14442;50.196;8.096;2023-05-01T15:13:06;0.40;;;0.40;;